sensor_id;sensor_type;location;lat;lon;timestamp;P1;durP1;ratioP1;P2;durP2;ratioP2
25917;SDS011;13899;51.174;4.456;2023-03-14T00:00:48;5.03;;;2.85;;
25917;SDS011;13899;51.174;4.456;2023-03-14T00:03:14;9.23;;;3.23;;
25917;SDS011;13899;51.174;4.456;2023-03-14T00:05:39;4.53;;;2.80;;
25917;SDS011;13899;51.174;4.456;2023-03-14T00:08:05;5.20;;;3.80;;
25917;SDS011;13899;51.174;4.456;2023-03-14T00:10:31;6.50;;;3.47;;
25917;SDS011;13899;51.174;4.456;2023-03-14T00:12:56;6.80;;;2.75;;
25917;SDS011;13899;51.174;4.456;2023-03-14T00:15:22;4.38;;;3.17;;
25917;SDS011;13899;51.174;4.456;2023-03-14T00:17:47;3.58;;;3.08;;
25917;SDS011;13899;51.174;4.456;2023-03-14T00:20:13;5.83;;;3.20;;
25917;SDS011;13899;51.174;4.456;2023-03-14T00:22:39;3.83;;;3.53;;
25917;SDS011;13899;51.174;4.456;2023-03-14T00:25:06;5.15;;;3.83;;
25917;SDS011;13899;51.174;4.456;2023-03-14T00:27:33;6.85;;;3.50;;
25917;SDS011;13899;51.174;4.456;2023-03-14T00:29:59;6.07;;;3.73;;
25917;SDS011;13899;51.174;4.456;2023-03-14T00:32:24;4.65;;;2.58;;
25917;SDS011;13899;51.174;4.456;2023-03-14T00:34:51;4.70;;;3.22;;
25917;SDS011;13899;51.174;4.456;2023-03-14T00:37:18;5.40;;;4.53;;
25917;SDS011;13899;51.174;4.456;2023-03-14T00:39:44;4.25;;;3.90;;
25917;SDS011;13899;51.174;4.456;2023-03-14T00:42:09;2.90;;;2.60;;
25917;SDS011;13899;51.174;4.456;2023-03-14T00:44:35;7.70;;;3.22;;
25917;SDS011;13899;51.174;4.456;2023-03-14T00:47:01;7.50;;;2.90;;
25917;SDS011;13899;51.174;4.456;2023-03-14T00:49:26;8.77;;;3.88;;
25917;SDS011;13899;51.174;4.456;2023-03-14T00:51:52;5.18;;;4.70;;
25917;SDS011;13899;51.174;4.456;2023-03-14T00:54:18;6.03;;;4.47;;
25917;SDS011;13899;51.174;4.456;2023-03-14T00:56:46;5.15;;;3.60;;
25917;SDS011;13899;51.174;4.456;2023-03-14T00:59:11;5.97;;;3.08;;
25917;SDS011;13899;51.174;4.456;2023-03-14T01:01:38;4.50;;;3.53;;
25917;SDS011;13899;51.174;4.456;2023-03-14T01:04:04;6.05;;;4.30;;
25917;SDS011;13899;51.174;4.456;2023-03-14T01:06:30;5.30;;;4.43;;
25917;SDS011;13899;51.174;4.456;2023-03-14T01:08:56;7.28;;;4.03;;
25917;SDS011;13899;51.174;4.456;2023-03-14T01:11:27;6.75;;;1.60;;
25917;SDS011;13899;51.174;4.456;2023-03-14T01:13:54;10.40;;;1.50;;
25917;SDS011;13899;51.174;4.456;2023-03-14T01:16:21;6.57;;;1.97;;
25917;SDS011;13899;51.174;4.456;2023-03-14T01:18:47;6.10;;;1.30;;
25917;SDS011;13899;51.174;4.456;2023-03-14T01:21:17;6.20;;;1.63;;
25917;SDS011;13899;51.174;4.456;2023-03-14T01:23:45;5.22;;;1.55;;
25917;SDS011;13899;51.174;4.456;2023-03-14T01:26:14;5.80;;;2.33;;
25917;SDS011;13899;51.174;4.456;2023-03-14T01:28:43;5.30;;;2.10;;
25917;SDS011;13899;51.174;4.456;2023-03-14T01:31:09;5.70;;;1.70;;
25917;SDS011;13899;51.174;4.456;2023-03-14T01:33:36;7.00;;;6.40;;
25917;SDS011;13899;51.174;4.456;2023-03-14T01:36:02;7.83;;;5.03;;
25917;SDS011;13899;51.174;4.456;2023-03-14T01:38:28;7.65;;;2.20;;
25917;SDS011;13899;51.174;4.456;2023-03-14T01:40:55;9.48;;;2.10;;
25917;SDS011;13899;51.174;4.456;2023-03-14T01:43:21;13.88;;;3.28;;
25917;SDS011;13899;51.174;4.456;2023-03-14T01:46:06;7.65;;;4.80;;
25917;SDS011;13899;51.174;4.456;2023-03-14T01:48:57;9.70;;;3.90;;
25917;SDS011;13899;51.174;4.456;2023-03-14T01:53:57;8.73;;;4.63;;
25917;SDS011;13899;51.174;4.456;2023-03-14T01:56:30;10.38;;;4.82;;
25917;SDS011;13899;51.174;4.456;2023-03-14T01:58:57;8.00;;;4.43;;
25917;SDS011;13899;51.174;4.456;2023-03-14T02:01:24;8.23;;;5.57;;
25917;SDS011;13899;51.174;4.456;2023-03-14T02:03:56;18.20;;;16.63;;
25917;SDS011;13899;51.174;4.456;2023-03-14T02:06:27;9.30;;;4.95;;
25917;SDS011;13899;51.174;4.456;2023-03-14T02:08:59;8.52;;;3.83;;
25917;SDS011;13899;51.174;4.456;2023-03-14T02:11:26;9.52;;;4.72;;
25917;SDS011;13899;51.174;4.456;2023-03-14T02:13:55;5.53;;;3.50;;
25917;SDS011;13899;51.174;4.456;2023-03-14T02:16:22;10.20;;;4.35;;
25917;SDS011;13899;51.174;4.456;2023-03-14T02:18:48;7.33;;;2.40;;
25917;SDS011;13899;51.174;4.456;2023-03-14T02:26:38;5.70;;;2.65;;
25917;SDS011;13899;51.174;4.456;2023-03-14T02:29:09;9.30;;;3.00;;
25917;SDS011;13899;51.174;4.456;2023-03-14T02:31:35;7.07;;;2.78;;
25917;SDS011;13899;51.174;4.456;2023-03-14T02:34:01;9.57;;;2.87;;
25917;SDS011;13899;51.174;4.456;2023-03-14T02:36:28;6.57;;;2.13;;
25917;SDS011;13899;51.174;4.456;2023-03-14T02:41:36;10.60;;;3.20;;
25917;SDS011;13899;51.174;4.456;2023-03-14T02:44:02;4.27;;;1.20;;
25917;SDS011;13899;51.174;4.456;2023-03-14T02:46:28;5.68;;;1.10;;
25917;SDS011;13899;51.174;4.456;2023-03-14T02:48:56;6.45;;;1.08;;
25917;SDS011;13899;51.174;4.456;2023-03-14T02:51:22;7.50;;;0.98;;
25917;SDS011;13899;51.174;4.456;2023-03-14T02:53:50;6.00;;;0.93;;
25917;SDS011;13899;51.174;4.456;2023-03-14T02:56:16;5.47;;;1.00;;
25917;SDS011;13899;51.174;4.456;2023-03-14T02:58:41;7.30;;;1.25;;
25917;SDS011;13899;51.174;4.456;2023-03-14T03:01:08;3.72;;;1.10;;
25917;SDS011;13899;51.174;4.456;2023-03-14T03:03:34;4.30;;;1.73;;
25917;SDS011;13899;51.174;4.456;2023-03-14T03:06:00;3.75;;;0.90;;
25917;SDS011;13899;51.174;4.456;2023-03-14T03:08:26;2.67;;;0.67;;
25917;SDS011;13899;51.174;4.456;2023-03-14T03:10:53;2.75;;;0.70;;
25917;SDS011;13899;51.174;4.456;2023-03-14T03:13:20;6.13;;;1.00;;
25917;SDS011;13899;51.174;4.456;2023-03-14T03:15:45;2.40;;;0.70;;
25917;SDS011;13899;51.174;4.456;2023-03-14T03:18:11;3.90;;;1.10;;
25917;SDS011;13899;51.174;4.456;2023-03-14T03:20:37;4.45;;;1.15;;
25917;SDS011;13899;51.174;4.456;2023-03-14T03:23:03;7.05;;;1.10;;
25917;SDS011;13899;51.174;4.456;2023-03-14T03:25:29;3.83;;;1.10;;
25917;SDS011;13899;51.174;4.456;2023-03-14T03:27:55;2.95;;;1.02;;
25917;SDS011;13899;51.174;4.456;2023-03-14T03:30:21;3.40;;;1.65;;
25917;SDS011;13899;51.174;4.456;2023-03-14T03:32:50;7.35;;;1.73;;
25917;SDS011;13899;51.174;4.456;2023-03-14T03:35:16;7.00;;;1.60;;
25917;SDS011;13899;51.174;4.456;2023-03-14T03:37:42;8.13;;;1.20;;
25917;SDS011;13899;51.174;4.456;2023-03-14T03:40:08;6.47;;;1.43;;
25917;SDS011;13899;51.174;4.456;2023-03-14T03:42:34;5.88;;;1.55;;
25917;SDS011;13899;51.174;4.456;2023-03-14T03:45:00;7.77;;;1.70;;
25917;SDS011;13899;51.174;4.456;2023-03-14T03:47:26;4.72;;;1.45;;
25917;SDS011;13899;51.174;4.456;2023-03-14T03:49:52;3.80;;;1.33;;
25917;SDS011;13899;51.174;4.456;2023-03-14T03:52:18;3.57;;;1.30;;
25917;SDS011;13899;51.174;4.456;2023-03-14T03:54:45;6.18;;;1.27;;
25917;SDS011;13899;51.174;4.456;2023-03-14T03:57:11;6.10;;;1.70;;
25917;SDS011;13899;51.174;4.456;2023-03-14T03:59:36;5.30;;;1.87;;
25917;SDS011;13899;51.174;4.456;2023-03-14T04:02:03;6.93;;;1.83;;
25917;SDS011;13899;51.174;4.456;2023-03-14T04:04:29;5.33;;;1.63;;
25917;SDS011;13899;51.174;4.456;2023-03-14T04:06:54;7.45;;;1.88;;
25917;SDS011;13899;51.174;4.456;2023-03-14T04:09:20;8.20;;;1.88;;
25917;SDS011;13899;51.174;4.456;2023-03-14T04:11:46;4.97;;;1.80;;
25917;SDS011;13899;51.174;4.456;2023-03-14T04:14:11;4.70;;;1.83;;
25917;SDS011;13899;51.174;4.456;2023-03-14T04:16:37;11.13;;;2.10;;
25917;SDS011;13899;51.174;4.456;2023-03-14T04:19:02;6.83;;;1.83;;
25917;SDS011;13899;51.174;4.456;2023-03-14T04:21:28;6.72;;;2.10;;
25917;SDS011;13899;51.174;4.456;2023-03-14T04:23:53;7.47;;;2.30;;
25917;SDS011;13899;51.174;4.456;2023-03-14T04:26:19;8.68;;;2.33;;
25917;SDS011;13899;51.174;4.456;2023-03-14T04:28:45;7.07;;;2.10;;
25917;SDS011;13899;51.174;4.456;2023-03-14T04:31:12;8.50;;;2.67;;
25917;SDS011;13899;51.174;4.456;2023-03-14T04:33:40;5.90;;;1.92;;
25917;SDS011;13899;51.174;4.456;2023-03-14T04:36:06;7.23;;;2.27;;
25917;SDS011;13899;51.174;4.456;2023-03-14T04:38:34;6.10;;;1.70;;
25917;SDS011;13899;51.174;4.456;2023-03-14T04:40:59;9.57;;;2.33;;
25917;SDS011;13899;51.174;4.456;2023-03-14T04:43:25;7.23;;;2.07;;
25917;SDS011;13899;51.174;4.456;2023-03-14T04:45:55;8.32;;;2.25;;
25917;SDS011;13899;51.174;4.456;2023-03-14T04:48:21;8.90;;;2.38;;
25917;SDS011;13899;51.174;4.456;2023-03-14T04:50:52;7.93;;;2.20;;
25917;SDS011;13899;51.174;4.456;2023-03-14T04:53:18;7.80;;;2.58;;
25917;SDS011;13899;51.174;4.456;2023-03-14T04:55:50;7.97;;;3.00;;
25917;SDS011;13899;51.174;4.456;2023-03-14T04:58:17;7.22;;;2.75;;
25917;SDS011;13899;51.174;4.456;2023-03-14T05:00:43;6.30;;;2.35;;
25917;SDS011;13899;51.174;4.456;2023-03-14T05:03:09;11.07;;;2.58;;
25917;SDS011;13899;51.174;4.456;2023-03-14T05:05:34;7.27;;;3.40;;
25917;SDS011;13899;51.174;4.456;2023-03-14T05:08:00;8.57;;;2.50;;
25917;SDS011;13899;51.174;4.456;2023-03-14T05:10:25;7.73;;;3.17;;
25917;SDS011;13899;51.174;4.456;2023-03-14T05:12:51;7.47;;;2.50;;
25917;SDS011;13899;51.174;4.456;2023-03-14T05:15:17;4.70;;;2.63;;
25917;SDS011;13899;51.174;4.456;2023-03-14T05:17:42;5.60;;;2.63;;
25917;SDS011;13899;51.174;4.456;2023-03-14T05:20:08;4.90;;;2.40;;
25917;SDS011;13899;51.174;4.456;2023-03-14T05:22:35;5.18;;;2.17;;
25917;SDS011;13899;51.174;4.456;2023-03-14T05:25:00;4.43;;;2.40;;
25917;SDS011;13899;51.174;4.456;2023-03-14T05:27:26;5.75;;;2.35;;
25917;SDS011;13899;51.174;4.456;2023-03-14T05:29:51;5.05;;;2.00;;
25917;SDS011;13899;51.174;4.456;2023-03-14T05:32:20;4.63;;;2.20;;
25917;SDS011;13899;51.174;4.456;2023-03-14T05:34:46;4.55;;;1.83;;
25917;SDS011;13899;51.174;4.456;2023-03-14T05:37:11;4.03;;;1.53;;
25917;SDS011;13899;51.174;4.456;2023-03-14T05:39:37;4.33;;;2.03;;
25917;SDS011;13899;51.174;4.456;2023-03-14T05:42:02;4.73;;;2.37;;
25917;SDS011;13899;51.174;4.456;2023-03-14T05:44:28;5.23;;;2.20;;
25917;SDS011;13899;51.174;4.456;2023-03-14T05:46:54;4.70;;;2.00;;
25917;SDS011;13899;51.174;4.456;2023-03-14T05:49:19;12.27;;;3.90;;
25917;SDS011;13899;51.174;4.456;2023-03-14T05:51:45;7.10;;;4.28;;
25917;SDS011;13899;51.174;4.456;2023-03-14T05:54:10;7.47;;;2.67;;
25917;SDS011;13899;51.174;4.456;2023-03-14T05:56:36;8.47;;;2.97;;
25917;SDS011;13899;51.174;4.456;2023-03-14T05:59:01;5.70;;;3.40;;
25917;SDS011;13899;51.174;4.456;2023-03-14T06:01:28;7.78;;;4.15;;
25917;SDS011;13899;51.174;4.456;2023-03-14T06:03:54;6.47;;;3.85;;
25917;SDS011;13899;51.174;4.456;2023-03-14T06:06:20;11.77;;;4.27;;
25917;SDS011;13899;51.174;4.456;2023-03-14T06:08:46;7.37;;;4.70;;
25917;SDS011;13899;51.174;4.456;2023-03-14T06:11:13;6.97;;;4.45;;
25917;SDS011;13899;51.174;4.456;2023-03-14T06:13:38;6.33;;;4.57;;
25917;SDS011;13899;51.174;4.456;2023-03-14T06:16:04;7.37;;;4.20;;
25917;SDS011;13899;51.174;4.456;2023-03-14T06:18:30;7.87;;;4.80;;
25917;SDS011;13899;51.174;4.456;2023-03-14T06:20:57;7.43;;;4.13;;
25917;SDS011;13899;51.174;4.456;2023-03-14T06:23:23;8.17;;;4.77;;
25917;SDS011;13899;51.174;4.456;2023-03-14T06:25:49;10.63;;;5.82;;
25917;SDS011;13899;51.174;4.456;2023-03-14T06:28:15;7.63;;;5.80;;
25917;SDS011;13899;51.174;4.456;2023-03-14T06:30:40;8.98;;;7.03;;
25917;SDS011;13899;51.174;4.456;2023-03-14T06:33:07;11.77;;;7.43;;
25917;SDS011;13899;51.174;4.456;2023-03-14T06:35:33;3.97;;;2.57;;
25917;SDS011;13899;51.174;4.456;2023-03-14T06:38:00;10.40;;;1.40;;
25917;SDS011;13899;51.174;4.456;2023-03-14T06:40:32;2.35;;;0.82;;
25917;SDS011;13899;51.174;4.456;2023-03-14T06:42:58;2.93;;;1.23;;
25917;SDS011;13899;51.174;4.456;2023-03-14T06:45:24;2.33;;;0.80;;
25917;SDS011;13899;51.174;4.456;2023-03-14T06:47:49;3.50;;;1.08;;
25917;SDS011;13899;51.174;4.456;2023-03-14T06:50:15;5.13;;;1.50;;
25917;SDS011;13899;51.174;4.456;2023-03-14T06:52:42;4.82;;;1.52;;
25917;SDS011;13899;51.174;4.456;2023-03-14T06:55:16;3.67;;;1.48;;
25917;SDS011;13899;51.174;4.456;2023-03-14T06:57:42;4.43;;;1.90;;
25917;SDS011;13899;51.174;4.456;2023-03-14T07:00:11;4.40;;;1.70;;
25917;SDS011;13899;51.174;4.456;2023-03-14T07:02:40;6.10;;;1.58;;
25917;SDS011;13899;51.174;4.456;2023-03-14T07:05:06;4.45;;;1.30;;
25917;SDS011;13899;51.174;4.456;2023-03-14T07:07:32;2.25;;;0.85;;
25917;SDS011;13899;51.174;4.456;2023-03-14T07:10:00;2.75;;;1.30;;
25917;SDS011;13899;51.174;4.456;2023-03-14T07:12:26;5.13;;;1.47;;
25917;SDS011;13899;51.174;4.456;2023-03-14T07:14:51;5.35;;;2.55;;
25917;SDS011;13899;51.174;4.456;2023-03-14T07:17:23;3.78;;;1.80;;
25917;SDS011;13899;51.174;4.456;2023-03-14T07:19:55;4.50;;;1.45;;
25917;SDS011;13899;51.174;4.456;2023-03-14T07:22:20;4.87;;;1.57;;
25917;SDS011;13899;51.174;4.456;2023-03-14T07:24:49;6.25;;;2.17;;
25917;SDS011;13899;51.174;4.456;2023-03-14T07:27:15;3.10;;;1.42;;
25917;SDS011;13899;51.174;4.456;2023-03-14T07:29:46;9.80;;;1.98;;
25917;SDS011;13899;51.174;4.456;2023-03-14T07:32:12;3.13;;;1.03;;
25917;SDS011;13899;51.174;4.456;2023-03-14T07:34:41;4.57;;;1.17;;
25917;SDS011;13899;51.174;4.456;2023-03-14T07:37:18;2.05;;;0.90;;
25917;SDS011;13899;51.174;4.456;2023-03-14T07:39:45;6.47;;;1.02;;
25917;SDS011;13899;51.174;4.456;2023-03-14T07:42:13;3.90;;;0.93;;
25917;SDS011;13899;51.174;4.456;2023-03-14T07:47:13;5.73;;;1.03;;
25917;SDS011;13899;51.174;4.456;2023-03-14T07:49:39;5.50;;;0.90;;
25917;SDS011;13899;51.174;4.456;2023-03-14T07:52:04;9.57;;;2.47;;
25917;SDS011;13899;51.174;4.456;2023-03-14T07:54:30;4.22;;;1.23;;
25917;SDS011;13899;51.174;4.456;2023-03-14T07:56:56;5.20;;;1.58;;
25917;SDS011;13899;51.174;4.456;2023-03-14T07:59:26;3.42;;;1.10;;
25917;SDS011;13899;51.174;4.456;2023-03-14T08:04:18;5.90;;;1.47;;
25917;SDS011;13899;51.174;4.456;2023-03-14T08:06:46;8.52;;;1.75;;
25917;SDS011;13899;51.174;4.456;2023-03-14T08:09:13;2.80;;;1.00;;
25917;SDS011;13899;51.174;4.456;2023-03-14T08:11:42;4.72;;;1.40;;
25917;SDS011;13899;51.174;4.456;2023-03-14T08:14:09;3.45;;;1.00;;
25917;SDS011;13899;51.174;4.456;2023-03-14T08:16:36;6.00;;;1.25;;
25917;SDS011;13899;51.174;4.456;2023-03-14T08:19:01;5.83;;;0.93;;
25917;SDS011;13899;51.174;4.456;2023-03-14T08:21:27;3.38;;;0.80;;
25917;SDS011;13899;51.174;4.456;2023-03-14T08:23:53;2.30;;;0.80;;
25917;SDS011;13899;51.174;4.456;2023-03-14T08:26:20;4.97;;;0.90;;
25917;SDS011;13899;51.174;4.456;2023-03-14T08:28:46;5.33;;;1.20;;
25917;SDS011;13899;51.174;4.456;2023-03-14T08:31:13;3.60;;;0.82;;
25917;SDS011;13899;51.174;4.456;2023-03-14T08:33:43;2.30;;;0.82;;
25917;SDS011;13899;51.174;4.456;2023-03-14T08:36:09;3.17;;;0.93;;
25917;SDS011;13899;51.174;4.456;2023-03-14T08:38:35;2.95;;;0.70;;
25917;SDS011;13899;51.174;4.456;2023-03-14T08:41:03;3.78;;;0.88;;
25917;SDS011;13899;51.174;4.456;2023-03-14T08:43:29;4.72;;;1.13;;
25917;SDS011;13899;51.174;4.456;2023-03-14T08:45:59;3.97;;;1.73;;
25917;SDS011;13899;51.174;4.456;2023-03-14T08:48:26;2.60;;;0.90;;
25917;SDS011;13899;51.174;4.456;2023-03-14T08:50:54;6.32;;;0.90;;
25917;SDS011;13899;51.174;4.456;2023-03-14T08:53:20;4.88;;;1.08;;
25917;SDS011;13899;51.174;4.456;2023-03-14T08:55:54;3.17;;;0.90;;
25917;SDS011;13899;51.174;4.456;2023-03-14T08:58:32;3.80;;;1.55;;
25917;SDS011;13899;51.174;4.456;2023-03-14T09:01:09;1.92;;;1.05;;
25917;SDS011;13899;51.174;4.456;2023-03-14T09:03:36;2.45;;;1.05;;
25917;SDS011;13899;51.174;4.456;2023-03-14T09:06:03;3.70;;;1.30;;
25917;SDS011;13899;51.174;4.456;2023-03-14T09:08:35;2.33;;;1.00;;
25917;SDS011;13899;51.174;4.456;2023-03-14T09:11:01;2.20;;;0.90;;
25917;SDS011;13899;51.174;4.456;2023-03-14T09:13:27;2.55;;;0.80;;
25917;SDS011;13899;51.174;4.456;2023-03-14T09:15:54;1.60;;;0.80;;
25917;SDS011;13899;51.174;4.456;2023-03-14T09:18:23;2.35;;;0.70;;
25917;SDS011;13899;51.174;4.456;2023-03-14T09:23:15;1.65;;;0.55;;
25917;SDS011;13899;51.174;4.456;2023-03-14T09:25:41;0.53;;;0.40;;
25917;SDS011;13899;51.174;4.456;2023-03-14T09:28:06;1.73;;;0.30;;
25917;SDS011;13899;51.174;4.456;2023-03-14T09:30:32;2.27;;;0.40;;
25917;SDS011;13899;51.174;4.456;2023-03-14T09:32:58;1.87;;;0.60;;
25917;SDS011;13899;51.174;4.456;2023-03-14T09:35:24;8.13;;;0.57;;
25917;SDS011;13899;51.174;4.456;2023-03-14T09:37:50;2.40;;;0.60;;
25917;SDS011;13899;51.174;4.456;2023-03-14T09:40:36;3.17;;;0.88;;
25917;SDS011;13899;51.174;4.456;2023-03-14T09:43:03;2.05;;;0.40;;
25917;SDS011;13899;51.174;4.456;2023-03-14T09:45:40;1.60;;;0.50;;
25917;SDS011;13899;51.174;4.456;2023-03-14T09:48:12;1.52;;;0.50;;
25917;SDS011;13899;51.174;4.456;2023-03-14T09:50:43;2.58;;;0.50;;
25917;SDS011;13899;51.174;4.456;2023-03-14T09:53:16;1.90;;;0.50;;
25917;SDS011;13899;51.174;4.456;2023-03-14T09:55:44;1.17;;;0.50;;
25917;SDS011;13899;51.174;4.456;2023-03-14T09:58:13;5.40;;;1.25;;
25917;SDS011;13899;51.174;4.456;2023-03-14T10:00:44;2.08;;;0.60;;
25917;SDS011;13899;51.174;4.456;2023-03-14T10:05:38;1.52;;;0.60;;
25917;SDS011;13899;51.174;4.456;2023-03-14T10:08:09;3.88;;;0.70;;
25917;SDS011;13899;51.174;4.456;2023-03-14T10:10:37;3.92;;;2.05;;
25917;SDS011;13899;51.174;4.456;2023-03-14T10:15:35;2.05;;;0.80;;
25917;SDS011;13899;51.174;4.456;2023-03-14T10:23:44;2.45;;;1.35;;
25917;SDS011;13899;51.174;4.456;2023-03-14T10:26:03;3.60;;;1.38;;
25917;SDS011;13899;51.174;4.456;2023-03-14T10:28:53;3.70;;;1.05;;
25917;SDS011;13899;51.174;4.456;2023-03-14T10:31:25;3.83;;;1.20;;
25917;SDS011;13899;51.174;4.456;2023-03-14T10:34:01;4.47;;;1.20;;
25917;SDS011;13899;51.174;4.456;2023-03-14T10:36:29;2.33;;;0.90;;
25917;SDS011;13899;51.174;4.456;2023-03-14T10:39:04;7.78;;;1.40;;
25917;SDS011;13899;51.174;4.456;2023-03-14T10:42:01;3.38;;;0.90;;
25917;SDS011;13899;51.174;4.456;2023-03-14T10:44:41;2.53;;;0.82;;
25917;SDS011;13899;51.174;4.456;2023-03-14T10:47:12;4.75;;;2.53;;
25917;SDS011;13899;51.174;4.456;2023-03-14T10:49:43;6.78;;;3.67;;
25917;SDS011;13899;51.174;4.456;2023-03-14T10:52:13;5.97;;;2.40;;
25917;SDS011;13899;51.174;4.456;2023-03-14T10:54:54;5.32;;;3.42;;
25917;SDS011;13899;51.174;4.456;2023-03-14T10:57:23;3.10;;;1.63;;
25917;SDS011;13899;51.174;4.456;2023-03-14T10:59:49;5.88;;;3.30;;
25917;SDS011;13899;51.174;4.456;2023-03-14T11:07:43;5.63;;;1.17;;
25917;SDS011;13899;51.174;4.456;2023-03-14T11:21:22;4.90;;;1.23;;
25917;SDS011;13899;51.174;4.456;2023-03-14T11:32:12;6.20;;;3.78;;
25917;SDS011;13899;51.174;4.456;2023-03-14T11:34:53;8.95;;;3.33;;
25917;SDS011;13899;51.174;4.456;2023-03-14T11:37:28;7.82;;;6.00;;
25917;SDS011;13899;51.174;4.456;2023-03-14T11:40:00;5.82;;;3.35;;
25917;SDS011;13899;51.174;4.456;2023-03-14T11:42:37;5.40;;;1.33;;
25917;SDS011;13899;51.174;4.456;2023-03-14T11:45:22;6.95;;;1.60;;
25917;SDS011;13899;51.174;4.456;2023-03-14T11:48:05;7.97;;;1.50;;
25917;SDS011;13899;51.174;4.456;2023-03-14T11:50:49;7.72;;;1.70;;
25917;SDS011;13899;51.174;4.456;2023-03-14T11:53:40;10.00;;;1.80;;
25917;SDS011;13899;51.174;4.456;2023-03-14T11:56:15;9.67;;;1.63;;
25917;SDS011;13899;51.174;4.456;2023-03-14T11:58:59;10.05;;;5.93;;
25917;SDS011;13899;51.174;4.456;2023-03-14T12:01:47;11.30;;;4.05;;
25917;SDS011;13899;51.174;4.456;2023-03-14T12:04:34;12.88;;;3.70;;
25917;SDS011;13899;51.174;4.456;2023-03-14T12:07:20;10.75;;;4.40;;
25917;SDS011;13899;51.174;4.456;2023-03-14T12:09:50;14.38;;;4.13;;
25917;SDS011;13899;51.174;4.456;2023-03-14T12:12:18;16.90;;;4.95;;
25917;SDS011;13899;51.174;4.456;2023-03-14T12:14:52;13.77;;;2.42;;
25917;SDS011;13899;51.174;4.456;2023-03-14T12:17:35;10.65;;;2.95;;
25917;SDS011;13899;51.174;4.456;2023-03-14T12:20:12;13.65;;;2.63;;
25917;SDS011;13899;51.174;4.456;2023-03-14T12:22:50;8.40;;;1.52;;
25917;SDS011;13899;51.174;4.456;2023-03-14T12:25:19;14.43;;;5.50;;
25917;SDS011;13899;51.174;4.456;2023-03-14T12:35:43;17.83;;;6.18;;
25917;SDS011;13899;51.174;4.456;2023-03-14T12:38:12;20.20;;;7.55;;
25917;SDS011;13899;51.174;4.456;2023-03-14T12:40:56;23.92;;;3.22;;
25917;SDS011;13899;51.174;4.456;2023-03-14T12:43:36;21.52;;;8.55;;
25917;SDS011;13899;51.174;4.456;2023-03-14T12:49:04;23.00;;;13.00;;
25917;SDS011;13899;51.174;4.456;2023-03-14T12:59:46;17.52;;;8.07;;
25917;SDS011;13899;51.174;4.456;2023-03-14T13:07:38;12.45;;;5.70;;
25917;SDS011;13899;51.174;4.456;2023-03-14T13:12:50;16.50;;;5.27;;
25917;SDS011;13899;51.174;4.456;2023-03-14T13:15:40;11.70;;;3.97;;
25917;SDS011;13899;51.174;4.456;2023-03-14T13:18:11;11.90;;;1.83;;
25917;SDS011;13899;51.174;4.456;2023-03-14T13:20:58;9.80;;;3.00;;
25917;SDS011;13899;51.174;4.456;2023-03-14T13:23:29;16.45;;;2.20;;
25917;SDS011;13899;51.174;4.456;2023-03-14T13:25:59;7.30;;;2.67;;
25917;SDS011;13899;51.174;4.456;2023-03-14T13:28:26;15.43;;;6.38;;
25917;SDS011;13899;51.174;4.456;2023-03-14T13:30:57;11.90;;;5.72;;
25917;SDS011;13899;51.174;4.456;2023-03-14T13:33:24;9.65;;;5.78;;
25917;SDS011;13899;51.174;4.456;2023-03-14T13:38:23;8.20;;;6.07;;
25917;SDS011;13899;51.174;4.456;2023-03-14T13:40:51;11.02;;;4.95;;
25917;SDS011;13899;51.174;4.456;2023-03-14T13:43:25;6.55;;;3.47;;
25917;SDS011;13899;51.174;4.456;2023-03-14T13:45:57;10.63;;;3.05;;
25917;SDS011;13899;51.174;4.456;2023-03-14T13:48:41;7.78;;;3.72;;
25917;SDS011;13899;51.174;4.456;2023-03-14T13:51:12;7.35;;;5.57;;
25917;SDS011;13899;51.174;4.456;2023-03-14T13:53:43;7.10;;;4.22;;
25917;SDS011;13899;51.174;4.456;2023-03-14T13:56:09;10.43;;;4.80;;
25917;SDS011;13899;51.174;4.456;2023-03-14T13:58:37;9.65;;;3.80;;
25917;SDS011;13899;51.174;4.456;2023-03-14T14:01:04;6.47;;;3.88;;
25917;SDS011;13899;51.174;4.456;2023-03-14T14:03:39;6.03;;;4.17;;
25917;SDS011;13899;51.174;4.456;2023-03-14T14:06:29;8.43;;;4.32;;
25917;SDS011;13899;51.174;4.456;2023-03-14T14:11:56;10.52;;;4.38;;
25917;SDS011;13899;51.174;4.456;2023-03-14T14:14:30;3.70;;;3.22;;
25917;SDS011;13899;51.174;4.456;2023-03-14T14:17:01;1.88;;;1.70;;
25917;SDS011;13899;51.174;4.456;2023-03-14T14:19:30;3.20;;;0.88;;
25917;SDS011;13899;51.174;4.456;2023-03-14T14:21:58;3.67;;;3.38;;
25917;SDS011;13899;51.174;4.456;2023-03-14T14:24:24;4.90;;;3.70;;
25917;SDS011;13899;51.174;4.456;2023-03-14T14:26:58;2.63;;;1.30;;
25917;SDS011;13899;51.174;4.456;2023-03-14T14:29:26;2.05;;;0.95;;
25917;SDS011;13899;51.174;4.456;2023-03-14T14:32:13;2.08;;;0.47;;
25917;SDS011;13899;51.174;4.456;2023-03-14T14:37:35;2.55;;;0.60;;
25917;SDS011;13899;51.174;4.456;2023-03-14T14:40:08;1.67;;;0.60;;
25917;SDS011;13899;51.174;4.456;2023-03-14T14:42:45;1.60;;;0.65;;
25917;SDS011;13899;51.174;4.456;2023-03-14T14:45:14;3.90;;;1.13;;
25917;SDS011;13899;51.174;4.456;2023-03-14T14:47:49;2.92;;;1.00;;
25917;SDS011;13899;51.174;4.456;2023-03-14T14:51:01;2.08;;;0.55;;
25917;SDS011;13899;51.174;4.456;2023-03-14T14:56:04;3.28;;;0.80;;
25917;SDS011;13899;51.174;4.456;2023-03-14T15:01:19;6.80;;;2.43;;
25917;SDS011;13899;51.174;4.456;2023-03-14T15:03:49;7.07;;;1.58;;
25917;SDS011;13899;51.174;4.456;2023-03-14T15:06:16;9.35;;;1.65;;
25917;SDS011;13899;51.174;4.456;2023-03-14T15:08:43;10.20;;;1.75;;
25917;SDS011;13899;51.174;4.456;2023-03-14T15:11:17;8.43;;;1.58;;
25917;SDS011;13899;51.174;4.456;2023-03-14T15:13:45;12.75;;;1.92;;
25917;SDS011;13899;51.174;4.456;2023-03-14T15:16:11;3.53;;;1.10;;
25917;SDS011;13899;51.174;4.456;2023-03-14T15:18:39;8.30;;;1.45;;
25917;SDS011;13899;51.174;4.456;2023-03-14T15:21:04;10.23;;;2.03;;
25917;SDS011;13899;51.174;4.456;2023-03-14T15:23:30;12.03;;;1.93;;
25917;SDS011;13899;51.174;4.456;2023-03-14T15:25:56;6.35;;;1.55;;
25917;SDS011;13899;51.174;4.456;2023-03-14T15:28:23;5.97;;;1.40;;
25917;SDS011;13899;51.174;4.456;2023-03-14T15:30:53;8.23;;;1.20;;
25917;SDS011;13899;51.174;4.456;2023-03-14T15:33:23;8.23;;;1.73;;
25917;SDS011;13899;51.174;4.456;2023-03-14T15:35:53;5.82;;;1.60;;
25917;SDS011;13899;51.174;4.456;2023-03-14T15:38:20;6.67;;;1.53;;
25917;SDS011;13899;51.174;4.456;2023-03-14T15:40:48;6.28;;;1.40;;
25917;SDS011;13899;51.174;4.456;2023-03-14T15:43:15;5.88;;;1.80;;
25917;SDS011;13899;51.174;4.456;2023-03-14T15:45:41;6.75;;;1.20;;
25917;SDS011;13899;51.174;4.456;2023-03-14T15:48:08;13.03;;;1.90;;
25917;SDS011;13899;51.174;4.456;2023-03-14T15:50:40;10.63;;;4.80;;
25917;SDS011;13899;51.174;4.456;2023-03-14T15:53:06;9.33;;;3.40;;
25917;SDS011;13899;51.174;4.456;2023-03-14T15:55:31;9.30;;;3.42;;
25917;SDS011;13899;51.174;4.456;2023-03-14T15:57:57;7.93;;;3.20;;
25917;SDS011;13899;51.174;4.456;2023-03-14T16:00:24;8.60;;;2.90;;
25917;SDS011;13899;51.174;4.456;2023-03-14T16:02:50;4.80;;;2.90;;
25917;SDS011;13899;51.174;4.456;2023-03-14T16:05:16;10.40;;;3.50;;
25917;SDS011;13899;51.174;4.456;2023-03-14T16:07:44;5.20;;;2.50;;
25917;SDS011;13899;51.174;4.456;2023-03-14T16:10:10;9.40;;;3.40;;
25917;SDS011;13899;51.174;4.456;2023-03-14T16:15:02;7.03;;;2.70;;
25917;SDS011;13899;51.174;4.456;2023-03-14T16:17:28;6.68;;;2.83;;
25917;SDS011;13899;51.174;4.456;2023-03-14T16:19:53;7.20;;;2.43;;
25917;SDS011;13899;51.174;4.456;2023-03-14T16:22:19;13.20;;;2.63;;
25917;SDS011;13899;51.174;4.456;2023-03-14T16:24:45;6.40;;;1.27;;
25917;SDS011;13899;51.174;4.456;2023-03-14T16:27:11;5.30;;;1.25;;
25917;SDS011;13899;51.174;4.456;2023-03-14T16:29:36;6.73;;;1.30;;
25917;SDS011;13899;51.174;4.456;2023-03-14T16:32:02;8.53;;;1.53;;